Time;durP1;ratioP1;P1;durP2;ratioP2;P2;SDS_P1;SDS_P2;PMS_P1;PMS_P2;Temp;Humidity;BMP_temperature;BMP_pressure;BME280_temperature;BME280_humidity;BME280_pressure;Samples;Min_cycle;Max_cycle;Signal;HPM_P1;HPM_P2
2022/06/26 00:02:22;;;;;;;12.93;11.27;;;;;;;17.83;82.63;101102.81;5112790;28;20467;-78
2022/06/26 00:04:49;;;;;;;13.57;12.18;;;;;;;17.82;82.94;101111.75;5111270;28;20036;-77
2022/06/26 00:07:17;;;;;;;14.02;12.05;;;;;;;17.81;82.99;101109.19;5111813;28;20032;-77
2022/06/26 00:09:45;;;;;;;13.43;12.05;;;;;;;17.80;83.00;101099.47;5111775;28;20036;-77
2022/06/26 00:12:12;;;;;;;12.63;11.40;;;;;;;17.78;83.40;101110.22;5108989;28;20040;-78
2022/06/26 00:14:39;;;;;;;15.15;12.48;;;;;;;17.74;83.99;101113.16;5112286;28;20115;-78
2022/06/26 00:17:06;;;;;;;12.85;11.48;;;;;;;17.72;84.19;101112.38;5110627;28;20036;-79
2022/06/26 00:19:33;;;;;;;16.15;12.15;;;;;;;17.69;84.56;101116.06;5111740;28;20520;-78
2022/06/26 00:22:05;;;;;;;16.55;12.60;;;;;;;17.67;84.68;101115.28;5112986;28;20040;-78
2022/06/26 00:24:34;;;;;;;13.98;11.38;;;;;;;17.65;84.77;101111.84;5112073;28;20052;-78
2022/06/26 00:27:03;;;;;;;14.45;12.82;;;;;;;17.62;85.04;101122.66;5111386;28;20920;-79
2022/06/26 00:29:34;;;;;;;14.52;13.15;;;;;;;17.62;85.37;101123.53;5112257;28;20052;-79
2022/06/26 00:32:05;;;;;;;14.15;12.65;;;;;;;17.59;85.43;101118.38;5111495;28;20115;-79
2022/06/26 00:34:32;;;;;;;14.90;12.82;;;;;;;17.61;85.75;101119.16;5112766;28;20067;-77
2022/06/26 00:36:59;;;;;;;15.30;13.68;;;;;;;17.65;85.74;101126.03;5111124;28;20046;-77
2022/06/26 00:39:26;;;;;;;15.00;13.23;;;;;;;17.64;85.78;101120.78;5089526;28;20047;-75
2022/06/26 00:41:53;;;;;;;15.02;12.98;;;;;;;17.63;85.76;101119.06;5094653;28;20040;-76
2022/06/26 00:44:24;;;;;;;15.35;12.15;;;;;;;17.62;85.80;101120.88;5092524;28;20067;-76
2022/06/26 00:46:52;;;;;;;16.00;13.35;;;;;;;17.58;85.78;101121.13;5093214;28;20044;-79
2022/06/26 00:49:20;;;;;;;15.00;12.93;;;;;;;17.54;86.01;101110.63;5090085;28;20040;-77
2022/06/26 00:51:51;;;;;;;14.40;13.00;;;;;;;17.50;85.89;101124.22;5092188;28;20068;-79
2022/06/26 00:54:20;;;;;;;14.50;13.00;;;;;;;17.49;85.97;101131.38;5109439;28;20079;-78
2022/06/26 00:56:48;;;;;;;14.65;12.77;;;;;;;17.49;86.18;101127.81;5110486;28;20062;-78
2022/06/26 00:59:16;;;;;;;13.95;12.55;;;;;;;17.45;86.36;101120.97;5108220;28;20098;-76
2022/06/26 01:01:43;;;;;;;15.98;13.35;;;;;;;17.41;86.59;101116.72;5112201;28;20039;-75
2022/06/26 01:04:11;;;;;;;15.93;13.55;;;;;;;17.41;86.80;101122.06;5112068;28;20469;-76
2022/06/26 01:06:38;;;;;;;16.77;13.55;;;;;;;17.41;86.86;101120.25;5107830;28;20150;-76
2022/06/26 01:09:10;;;;;;;16.35;13.68;;;;;;;17.46;87.06;101126.19;5105711;28;20102;-76
2022/06/26 01:11:38;;;;;;;15.30;13.70;;;;;;;17.49;87.17;101128.69;5105276;28;20093;-78
2022/06/26 01:14:07;;;;;;;14.95;13.45;;;;;;;17.53;87.26;101126.72;5105317;28;20527;-79
2022/06/26 01:16:34;;;;;;;19.15;13.93;;;;;;;17.56;87.06;101128.34;5111739;28;20063;-78
2022/06/26 01:19:05;;;;;;;16.25;14.45;;;;;;;17.58;87.17;101137.97;5103545;28;20125;-80
2022/06/26 01:21:33;;;;;;;15.75;13.07;;;;;;;17.62;87.11;101141.31;5090506;28;20474;-79
2022/06/26 01:24:02;;;;;;;14.93;13.30;;;;;;;17.63;87.20;101143.94;5094186;28;20046;-78
2022/06/26 01:26:30;;;;;;;16.05;13.20;;;;;;;17.63;87.06;101138.59;5110201;28;20533;-78
2022/06/26 01:28:57;;;;;;;16.70;13.63;;;;;;;17.62;86.99;101134.22;5091098;28;20082;-77
2022/06/26 01:31:24;;;;;;;14.20;12.07;;;;;;;17.58;86.19;101132.66;5111156;28;20079;-77
2022/06/26 01:33:55;;;;;;;14.18;12.73;;;;;;;17.51;86.26;101132.13;5103898;28;20051;-78
2022/06/26 01:36:22;;;;;;;15.98;12.88;;;;;;;17.48;86.15;101137.63;5078745;28;20067;-79
2022/06/26 01:38:51;;;;;;;12.60;11.38;;;;;;;17.46;86.17;101144.84;5097499;28;20127;-79
2022/06/26 01:41:18;;;;;;;15.93;13.40;;;;;;;17.46;86.16;101141.31;5110662;28;20550;-80
2022/06/26 01:43:48;;;;;;;16.02;13.48;;;;;;;17.45;86.21;101140.47;5096170;28;20115;-79
2022/06/26 01:46:18;;;;;;;14.25;12.57;;;;;;;17.46;86.35;101141.31;5109716;28;20044;-79
2022/06/26 01:48:45;;;;;;;14.10;12.60;;;;;;;17.50;86.66;101145.53;5090673;28;20090;-80
2022/06/26 01:51:14;;;;;;;14.32;12.52;;;;;;;17.51;86.58;101152.59;5108356;28;20044;-80
2022/06/26 01:53:44;;;;;;;17.15;13.55;;;;;;;17.51;86.32;101147.25;5104327;28;20047;-79
2022/06/26 01:56:11;;;;;;;15.40;13.60;;;;;;;17.51;86.37;101152.59;5092895;28;20037;-79
2022/06/26 01:58:43;;;;;;;15.85;13.73;;;;;;;17.51;86.37;101152.59;5110298;28;20786;-79
2022/06/26 02:01:18;;;;;;;15.38;13.48;;;;;;;17.51;86.53;101164.09;5092046;28;20044;-79
2022/06/26 02:03:45;;;;;;;16.27;14.57;;;;;;;17.50;86.41;101158.88;5095111;28;20044;-80
2022/06/26 02:06:13;;;;;;;16.73;14.48;;;;;;;17.48;86.36;101152.75;5112836;28;20057;-79
2022/06/26 02:08:40;;;;;;;16.52;14.32;;;;;;;17.44;86.33;101156.53;5110414;28;20043;-78
2022/06/26 02:13:55;;;;;;;15.38;12.82;;;;;;;17.37;86.47;101162.19;5094177;28;20044;-77
2022/06/26 02:16:30;;;;;;;16.73;13.30;;;;;;;17.34;86.44;101153.50;5113628;27;20105;-76
2022/06/26 02:18:58;;;;;;;15.93;14.30;;;;;;;17.27;86.39;101157.44;5091562;28;20046;-78
2022/06/26 02:21:28;;;;;;;17.27;13.50;;;;;;;17.25;86.85;101154.84;5091803;28;20044;-78
2022/06/26 02:23:59;;;;;;;13.98;11.57;;;;;;;17.26;86.97;101151.25;5111150;28;20048;-77
2022/06/26 02:26:27;;;;;;;13.60;10.88;;;;;;;17.25;86.16;101148.66;5095905;28;20051;-78
2022/06/26 02:28:56;;;;;;;15.63;12.13;;;;;;;17.18;86.01;101145.47;5108798;28;20051;-77
2022/06/26 02:31:27;;;;;;;13.80;11.35;;;;;;;17.11;86.08;101144.94;5094536;28;20059;-77
2022/06/26 02:33:54;;;;;;;14.00;10.48;;;;;;;17.07;86.17;101146.06;5096107;28;20128;-78
2022/06/26 02:36:23;;;;;;;14.23;11.48;;;;;;;17.04;86.34;101147.06;5108554;28;20098;-77
2022/06/26 02:38:50;;;;;;;13.20;10.95;;;;;;;17.01;86.54;101152.56;5089651;28;20060;-78
2022/06/26 02:41:17;;;;;;;13.93;11.98;;;;;;;17.00;86.57;101156.16;5091144;28;20040;-78
2022/06/26 02:43:46;;;;;;;17.23;12.13;;;;;;;17.04;86.68;101154.19;5096313;28;20094;-78
2022/06/26 02:46:13;;;;;;;13.23;11.38;;;;;;;17.08;86.69;101151.28;5112338;28;20044;-78
2022/06/26 02:48:44;;;;;;;13.15;10.45;;;;;;;17.07;86.22;101144.25;5108072;28;20048;-78
2022/06/26 02:51:11;;;;;;;15.77;11.93;;;;;;;17.07;86.50;101152.22;5113044;28;20055;-78
2022/06/26 02:53:39;;;;;;;16.20;12.85;;;;;;;17.08;86.43;101156.63;5113935;28;20493;-78
2022/06/26 02:56:06;;;;;;;15.60;12.43;;;;;;;17.08;86.63;101161.94;5095911;28;20067;-79
2022/06/26 02:58:34;;;;;;;17.27;12.55;;;;;;;17.08;86.31;101156.63;5095000;28;20075;-77
2022/06/26 03:01:04;;;;;;;12.65;11.32;;;;;;;17.08;86.67;101169.94;5094165;28;20048;-77
2022/06/26 03:03:31;;;;;;;14.95;12.40;;;;;;;17.11;86.39;101176.03;5095092;28;20105;-77
2022/06/26 03:05:58;;;;;;;15.88;12.35;;;;;;;17.12;86.10;101185.75;5113239;28;20056;-78
2022/06/26 03:08:26;;;;;;;14.38;12.73;;;;;;;17.12;86.23;101180.44;5108504;28;20113;-78
2022/06/26 03:10:54;;;;;;;14.60;12.63;;;;;;;17.13;86.37;101175.03;5096136;28;20055;-79
2022/06/26 03:13:23;;;;;;;13.63;11.65;;;;;;;17.14;86.10;101175.91;5090947;28;20080;-78
2022/06/26 03:15:50;;;;;;;15.95;12.18;;;;;;;17.14;86.10;101195.38;5095063;28;20039;-77
2022/06/26 03:18:18;;;;;;;15.95;13.43;;;;;;;17.14;85.73;101198.06;5112398;28;20048;-78
2022/06/26 03:20:45;;;;;;;15.88;12.60;;;;;;;17.09;85.66;101197.44;5114338;28;20836;-78
2022/06/26 03:23:12;;;;;;;16.67;12.50;;;;;;;17.07;86.16;101194.84;5110054;28;20110;-79
2022/06/26 03:25:39;;;;;;;16.20;13.43;;;;;;;17.10;85.92;101195.63;5095808;28;20032;-77
2022/06/26 03:28:07;;;;;;;17.90;13.88;;;;;;;17.10;86.07;101208.94;5093454;28;20040;-77
2022/06/26 03:30:40;;;;;;;15.63;14.03;;;;;;;17.10;86.33;101214.28;5095072;28;20028;-77
2022/06/26 03:33:08;;;;;;;17.17;13.60;;;;;;;17.12;86.38;101215.91;5107950;28;20336;-78
2022/06/26 03:35:36;;;;;;;19.65;14.25;;;;;;;17.14;86.29;101219.34;5113262;28;20101;-78
2022/06/26 03:38:05;;;;;;;17.13;14.55;;;;;;;17.14;85.94;101232.69;5095807;28;20093;-78
2022/06/26 03:40:34;;;;;;;15.77;13.50;;;;;;;17.12;86.04;101223.06;5091765;28;20041;-78
2022/06/26 03:43:02;;;;;;;16.25;14.05;;;;;;;17.10;86.23;101231.09;5100505;28;20467;-78
2022/06/26 03:45:43;;;;;;;17.73;14.20;;;;;;;17.11;86.02;101234.66;5102654;28;20048;-79
2022/06/26 03:48:11;;;;;;;19.05;14.60;;;;;;;17.11;86.27;101231.97;5110715;28;20403;-77
2022/06/26 03:50:38;;;;;;;18.08;15.40;;;;;;;17.12;85.75;101231.03;5111927;28;20040;-78
2022/06/26 03:53:06;;;;;;;17.73;14.57;;;;;;;17.12;86.02;101244.38;5111165;28;20047;-78
2022/06/26 03:55:33;;;;;;;16.45;14.23;;;;;;;17.13;85.88;101246.09;5093469;28;20117;-78
2022/06/26 03:58:02;;;;;;;19.13;13.32;;;;;;;17.16;85.91;101253.91;5108540;28;20537;-78
2022/06/26 04:00:31;;;;;;;18.42;13.55;;;;;;;17.19;85.74;101256.41;5095752;28;20066;-79
2022/06/26 04:03:04;;;;;;;17.30;15.10;;;;;;;17.20;85.77;101263.47;5105982;28;20107;-79
2022/06/26 04:05:37;;;;;;;19.02;14.02;;;;;;;17.23;85.96;101266.84;5108235;28;20056;-77
2022/06/26 04:08:06;;;;;;;16.88;14.93;;;;;;;17.24;85.74;101273.03;5109705;28;20051;-77
2022/06/26 04:10:43;;;;;;;16.50;13.63;;;;;;;17.27;85.35;101272.00;5092024;28;20048;-77
2022/06/26 04:13:40;;;;;;;16.00;12.85;;;;;;;17.26;84.59;101275.63;5097538;28;20055;-76
2022/06/26 04:16:08;;;;;;;16.38;13.73;;;;;;;17.29;84.66;101278.13;5104024;28;20036;-76
2022/06/26 04:18:38;;;;;;;16.27;12.93;;;;;;;17.28;84.06;101269.25;5109572;28;20118;-78
2022/06/26 04:21:09;;;;;;;15.68;13.13;;;;;;;17.22;84.31;101274.91;5092323;28;20533;-76
2022/06/26 04:23:37;;;;;;;16.77;13.15;;;;;;;17.14;84.43;101269.97;5107604;28;20047;-77
2022/06/26 04:26:08;;;;;;;16.52;12.93;;;;;;;17.13;84.39;101262.06;5078694;28;20039;-78
2022/06/26 04:28:37;;;;;;;13.80;11.70;;;;;;;17.15;83.83;101266.38;5093220;28;20039;-76
2022/06/26 04:31:06;;;;;;;13.05;10.82;;;;;;;17.13;83.75;101257.59;5078520;28;20527;-76
2022/06/26 04:33:36;;;;;;;15.70;12.55;;;;;;;17.07;84.18;101265.91;5092717;28;20116;-76
2022/06/26 04:36:07;;;;;;;16.67;12.75;;;;;;;17.02;84.37;101262.59;5112575;28;20094;-76
2022/06/26 04:38:36;;;;;;;16.88;12.90;;;;;;;17.02;84.82;101267.94;5090369;28;20584;-76
2022/06/26 04:41:31;;;;;;;18.58;13.88;;;;;;;17.01;84.93;101260.88;5094474;28;20040;-75
2022/06/26 04:43:51;;;;;;;14.57;10.82;;;;;;;17.04;85.00;101271.38;5093449;28;20402;-76
2022/06/26 04:46:18;;;;;;;13.45;10.05;;;;;;;17.08;84.32;101273.81;5094143;28;20036;-76
2022/06/26 04:48:46;;;;;;;11.13;8.98;;;;;;;17.15;83.64;101270.81;5093178;28;20517;-76
2022/06/26 04:51:16;;;;;;;12.50;8.48;;;;;;;17.21;82.29;101278.53;5099158;28;20145;-77
2022/06/26 04:53:44;;;;;;;14.82;8.35;;;;;;;17.23;81.98;101287.31;5092989;28;20040;-78
2022/06/26 04:56:11;;;;;;;14.35;8.38;;;;;;;17.25;81.52;101290.72;5090410;28;20090;-75
2022/06/26 04:58:45;;;;;;;12.90;8.68;;;;;;;17.22;80.86;101294.41;5109033;28;20066;-75
2022/06/26 05:01:14;;;;;;;11.90;8.05;;;;;;;17.25;81.28;101308.53;5110228;28;20058;-76
2022/06/26 05:03:58;;;;;;;11.57;8.82;;;;;;;17.26;81.16;101318.25;5109748;28;20069;-76
2022/06/26 05:06:55;;;;;;;14.57;8.27;;;;;;;17.28;80.73;101322.53;5099741;28;20526;-76
2022/06/26 05:09:33;;;;;;;11.15;8.57;;;;;;;17.36;80.58;101324.81;5091733;28;20040;-77
2022/06/26 05:12:00;;;;;;;15.85;8.27;;;;;;;17.41;80.34;101314.78;5110059;28;20046;-77
2022/06/26 05:14:40;;;;;;;13.45;7.68;;;;;;;17.70;79.15;101313.25;5088275;28;20040;-78
2022/06/26 05:17:18;;;;;;;13.60;7.95;;;;;;;18.07;78.92;101310.47;5089860;28;20045;-79
2022/06/26 05:19:46;;;;;;;9.85;7.65;;;;;;;18.96;77.61;101324.25;5086382;28;20037;-80
2022/06/26 05:22:13;;;;;;;10.57;7.70;;;;;;;20.31;72.66;101320.53;5085659;28;20068;-80
2022/06/26 05:24:42;;;;;;;12.05;8.15;;;;;;;20.33;72.49;101334.69;5089711;28;20837;-79
2022/06/26 05:27:10;;;;;;;11.90;7.75;;;;;;;19.92;71.25;101331.94;5110207;28;20036;-79
2022/06/26 05:29:43;;;;;;;11.38;7.65;;;;;;;19.43;72.04;101330.44;5103093;28;20037;-77
2022/06/26 05:32:10;;;;;;;10.45;8.20;;;;;;;19.01;72.78;101328.41;5087803;28;20470;-79
2022/06/26 05:34:37;;;;;;;13.10;7.65;;;;;;;18.79;73.92;101323.38;5098665;28;20514;-78
2022/06/26 05:37:05;;;;;;;9.90;7.72;;;;;;;18.95;73.28;101315.38;5099553;28;20487;-78
2022/06/26 05:39:32;;;;;;;11.43;7.47;;;;;;;18.84;73.82;101332.00;5099602;28;20049;-78
2022/06/26 05:41:59;;;;;;;11.73;7.63;;;;;;;19.57;71.71;101319.75;5099084;28;20047;-79
2022/06/26 05:44:29;;;;;;;8.13;6.63;;;;;;;21.57;65.98;101317.63;5106063;28;20105;-79
2022/06/26 05:47:00;;;;;;;7.78;6.07;;;;;;;21.40;65.63;101321.47;5092912;28;20032;-79
2022/06/26 05:50:03;;;;;;;12.27;6.67;;;;;;;21.30;64.31;101332.00;5104506;28;20037;-77
2022/06/26 05:52:59;;;;;;;9.18;6.03;;;;;;;21.90;64.09;101331.50;5094408;28;20060;-78
2022/06/26 05:55:47;;;;;;;8.05;5.95;;;;;;;22.39;62.60;101340.56;5112607;28;20059;-77
2022/06/26 05:58:32;;;;;;;8.18;5.10;;;;;;;;;;5112585;28;20040;-78
2022/06/26 06:01:15;;;;;;;7.38;5.25;;;;;;;22.42;61.69;101351.97;5095669;28;20036;-77
2022/06/26 06:03:46;;;;;;;8.65;5.22;;;;;;;23.25;58.35;101355.72;5087250;28;20051;-80
2022/06/26 06:06:13;;;;;;;6.57;4.57;;;;;;;24.01;56.57;101352.59;5109903;28;20060;-78
2022/06/26 06:08:41;;;;;;;7.18;4.20;;;;;;;24.90;53.36;101351.75;5094368;28;20042;-79
2022/06/26 06:11:08;;;;;;;6.68;4.43;;;;;;;24.74;54.34;101348.59;5096304;28;20535;-79
2022/06/26 06:13:35;;;;;;;7.20;3.97;;;;;;;25.49;52.01;101360.34;5095089;28;20147;-79
2022/06/26 06:16:04;;;;;;;7.30;4.50;;;;;;;26.10;49.35;101371.38;5095561;28;20044;-79
2022/06/26 06:18:33;;;;;;;8.23;4.00;;;;;;;26.47;49.17;101376.19;5111090;28;20049;-78
2022/06/26 06:21:01;;;;;;;7.70;4.40;;;;;;;25.78;49.11;101386.66;5095974;28;20138;-78
2022/06/26 06:23:37;;;;;;;6.47;4.28;;;;;;;25.08;50.06;101387.09;5115309;28;20044;-79
2022/06/26 06:26:05;;;;;;;7.32;3.80;;;;;;;23.95;52.40;101390.78;5112315;28;20044;-81
2022/06/26 06:28:32;;;;;;;7.03;4.10;;;;;;;22.90;55.42;101395.97;5107331;28;20040;-76
2022/06/26 06:31:00;;;;;;;9.45;4.53;;;;;;;22.24;57.72;101405.13;5087396;28;21077;-76
2022/06/26 06:33:28;;;;;;;5.75;4.15;;;;;;;21.64;58.76;101406.63;5110325;28;20070;-78
2022/06/26 06:35:57;;;;;;;6.68;4.00;;;;;;;21.08;59.82;101402.25;5090207;28;20036;-77
2022/06/26 06:38:28;;;;;;;10.15;3.97;;;;;;;20.83;61.25;101400.31;5091144;28;20127;-76
2022/06/26 06:40:58;;;;;;;6.10;3.88;;;;;;;20.77;62.64;101396.22;5104000;28;20036;-77
2022/06/26 06:43:34;;;;;;;7.80;4.13;;;;;;;20.64;63.24;101394.31;5106557;28;20032;-76
2022/06/26 06:46:36;;;;;;;8.05;4.35;;;;;;;20.43;63.35;101395.69;5043096;28;20172;-74
2022/06/26 06:49:14;;;;;;;7.00;4.10;;;;;;;20.22;63.51;101414.81;5083154;28;20109;-75
2022/06/26 06:51:49;;;;;;;7.93;4.35;;;;;;;20.11;63.87;101410.09;5104077;28;20040;-76
2022/06/26 06:54:16;;;;;;;7.95;4.28;;;;;;;20.12;64.31;101409.16;5111370;28;20044;-77
2022/06/26 06:56:45;;;;;;;5.90;3.75;;;;;;;20.20;64.50;101411.38;5093903;28;20525;-77
2022/06/26 06:59:14;;;;;;;6.35;3.95;;;;;;;20.23;64.31;101403.16;5092874;28;20491;-76
2022/06/26 07:01:43;;;;;;;6.93;3.85;;;;;;;20.34;63.72;101397.13;5107452;28;20052;-77
2022/06/26 07:04:11;;;;;;;6.25;3.78;;;;;;;20.39;62.77;101403.06;5112546;28;20528;-77
2022/06/26 07:06:39;;;;;;;6.97;4.78;;;;;;;20.36;63.04;101407.72;5111166;28;20048;-76
2022/06/26 07:09:06;;;;;;;10.35;4.70;;;;;;;20.40;62.80;101419.97;5112090;28;20114;-77
2022/06/26 07:11:35;;;;;;;6.40;3.85;;;;;;;20.38;63.03;101420.06;5111145;28;20055;-77
2022/06/26 07:14:04;;;;;;;8.18;4.20;;;;;;;20.43;63.61;101417.94;5106430;28;20047;-76
2022/06/26 07:16:42;;;;;;;6.80;3.70;;;;;;;20.52;63.39;101426.34;5103790;28;20047;-77
2022/06/26 07:19:11;;;;;;;7.82;4.10;;;;;;;20.62;64.05;101435.53;5084919;28;20044;-75
2022/06/26 07:21:40;;;;;;;6.85;4.28;;;;;;;20.72;62.96;101434.00;5081188;28;20036;-76
2022/06/26 07:24:07;;;;;;;8.63;4.15;;;;;;;20.80;62.94;101436.22;5104779;28;20037;-77
2022/06/26 07:27:03;;;;;;;10.93;3.95;;;;;;;20.85;62.35;101441.28;5101286;28;20039;-77
2022/06/26 07:29:37;;;;;;;9.27;3.63;;;;;;;20.88;62.21;101454.47;5091291;28;20048;-77
2022/06/26 07:32:12;;;;;;;8.57;4.40;;;;;;;20.95;61.77;101453.13;5098142;28;20064;-77
2022/06/26 07:34:39;;;;;;;5.70;3.75;;;;;;;20.91;61.59;101457.81;5092667;28;20044;-76
2022/06/26 07:37:06;;;;;;;6.63;4.20;;;;;;;20.91;62.11;101451.59;5091807;28;20577;-76
2022/06/26 07:39:33;;;;;;;5.25;4.00;;;;;;;20.98;62.09;101458.28;5107434;28;20040;-76
2022/06/26 07:42:01;;;;;;;4.32;3.17;;;;;;;21.03;60.60;101460.66;5092332;28;20036;-76
2022/06/26 07:44:32;;;;;;;4.65;3.33;;;;;;;21.02;61.54;101454.44;5090847;28;20036;-76
2022/06/26 07:47:01;;;;;;;5.93;3.28;;;;;;;21.07;60.19;101464.84;5088970;28;20040;-75
2022/06/26 07:49:54;;;;;;;7.05;3.00;;;;;;;21.10;60.83;101462.84;5104333;28;20123;-77
2022/06/26 07:52:23;;;;;;;5.80;2.88;;;;;;;21.25;59.95;101452.06;5112621;28;20041;-76
2022/06/26 07:54:50;;;;;;;5.95;3.45;;;;;;;21.40;60.67;101451.06;5113186;28;20806;-77
2022/06/26 07:57:18;;;;;;;5.93;3.13;;;;;;;21.56;60.79;101450.91;5111418;27;20042;-76
2022/06/26 07:59:46;;;;;;;7.28;3.28;;;;;;;21.72;60.35;101450.72;5112074;27;20044;-76
2022/06/26 08:02:13;;;;;;;6.88;3.13;;;;;;;21.93;60.20;101463.66;5110420;28;20040;-76
2022/06/26 08:04:40;;;;;;;4.75;2.80;;;;;;;22.10;59.33;101459.81;5112017;28;20036;-77
2022/06/26 08:07:07;;;;;;;5.03;2.85;;;;;;;22.22;58.57;101462.59;5113223;28;20036;-72
2022/06/26 08:09:34;;;;;;;5.97;2.90;;;;;;;22.31;58.87;101470.00;5111498;28;20494;-76
2022/06/26 08:12:02;;;;;;;5.88;2.42;;;;;;;22.33;56.49;101465.41;5112980;28;20127;-77
2022/06/26 08:14:33;;;;;;;4.72;2.00;;;;;;;22.32;57.30;101464.56;5091566;28;20064;-77
2022/06/26 08:17:00;;;;;;;5.55;2.60;;;;;;;22.31;57.04;101453.91;5113689;28;20812;-77
2022/06/26 08:19:28;;;;;;;4.28;2.20;;;;;;;22.31;56.93;101446.72;5113489;28;20051;-76
2022/06/26 08:22:01;;;;;;;4.80;2.15;;;;;;;22.30;57.06;101449.50;5113638;28;20060;-76
2022/06/26 08:24:31;;;;;;;6.93;1.83;;;;;;;22.34;55.51;101459.06;5113228;28;20047;-76
2022/06/26 08:27:00;;;;;;;3.72;1.67;;;;;;;22.38;53.05;101467.75;5113326;28;20064;-76
2022/06/26 08:29:28;;;;;;;5.28;1.77;;;;;;;22.31;53.92;101470.00;5111296;28;20071;-77
2022/06/26 08:31:56;;;;;;;5.55;1.90;;;;;;;22.30;55.30;101482.59;5113176;28;20063;-76
2022/06/26 08:34:23;;;;;;;2.95;2.00;;;;;;;22.37;54.07;101476.78;5112347;28;20075;-75
2022/06/26 08:36:52;;;;;;;5.68;2.05;;;;;;;22.35;54.97;101479.56;5113410;28;20055;-76
2022/06/26 08:39:21;;;;;;;4.53;2.20;;;;;;;22.34;54.55;101476.00;5107091;28;20919;-76
2022/06/26 08:41:52;;;;;;;6.97;2.22;;;;;;;22.31;54.86;101488.81;5112529;28;20164;-77
2022/06/26 08:44:21;;;;;;;5.20;1.80;;;;;;;22.27;55.18;101487.31;5111663;28;20610;-77
2022/06/26 08:46:48;;;;;;;5.65;1.80;;;;;;;22.19;54.65;101495.91;5110961;28;20097;-76
2022/06/26 08:49:20;;;;;;;4.03;1.73;;;;;;;22.08;55.52;101485.88;5113178;28;20032;-76
2022/06/26 08:51:48;;;;;;;3.85;1.70;;;;;;;22.06;55.03;101485.16;5112642;28;20045;-75
2022/06/26 08:54:18;;;;;;;5.40;1.90;;;;;;;22.04;55.26;101492.44;5112965;28;20032;-77
2022/06/26 08:56:48;;;;;;;4.72;2.30;;;;;;;22.03;55.66;101485.34;5112691;28;20118;-76
2022/06/26 08:59:18;;;;;;;5.28;2.40;;;;;;;22.08;56.37;101488.56;5112866;28;20554;-77
2022/06/26 09:01:45;;;;;;;5.60;2.55;;;;;;;22.09;56.28;101495.66;5111264;28;20135;-76
2022/06/26 09:04:13;;;;;;;5.47;2.80;;;;;;;22.07;57.21;101497.63;5112141;28;20079;-77
2022/06/26 09:06:43;;;;;;;4.38;2.60;;;;;;;22.08;57.06;101499.31;5109421;28;20063;-74
2022/06/26 09:09:23;;;;;;;3.63;2.60;;;;;;;22.01;57.56;101496.22;5112173;28;20064;-76
2022/06/26 09:12:00;;;;;;;8.43;2.65;;;;;;;21.96;57.36;101492.97;5113958;27;20036;-76
2022/06/26 09:14:30;;;;;;;4.80;2.28;;;;;;;21.94;57.88;101497.56;5114713;28;20131;-76
2022/06/26 09:16:59;;;;;;;5.28;2.08;;;;;;;21.93;57.67;101492.31;5116419;28;20036;-76
2022/06/26 09:19:33;;;;;;;5.55;2.28;;;;;;;21.90;57.28;101479.09;5116531;28;20040;-76
2022/06/26 09:22:11;;;;;;;5.50;2.25;;;;;;;21.90;57.25;101481.78;5116286;28;20048;-76
2022/06/26 09:24:40;;;;;;;3.17;1.85;;;;;;;21.95;57.62;101498.44;5115844;28;20085;-76
2022/06/26 09:27:14;;;;;;;3.17;1.98;;;;;;;21.97;56.81;101489.31;5116211;28;20048;-76
2022/06/26 09:29:50;;;;;;;4.72;2.35;;;;;;;22.03;55.21;101494.25;5115912;28;20040;-76
2022/06/26 09:32:21;;;;;;;4.50;2.10;;;;;;;22.02;55.24;101489.88;5116157;28;20036;-75
2022/06/26 09:34:52;;;;;;;4.57;2.20;;;;;;;22.06;56.17;101482.47;5115741;28;20047;-76
2022/06/26 09:37:22;;;;;;;5.18;2.00;;;;;;;22.10;56.31;101488.50;5116373;28;20048;-77
2022/06/26 09:40:15;;;;;;;4.35;1.90;;;;;;;22.13;56.73;101490.97;5116189;28;20047;-77
2022/06/26 09:42:43;;;;;;;3.08;1.80;;;;;;;22.11;56.24;101484.84;5115127;28;20040;-76
2022/06/26 09:45:10;;;;;;;4.07;2.20;;;;;;;22.05;55.79;101488.81;5115458;28;20070;-76
2022/06/26 09:47:39;;;;;;;4.55;2.15;;;;;;;22.01;55.97;101496.22;5115829;28;20129;-76
2022/06/26 09:50:08;;;;;;;4.78;2.10;;;;;;;21.99;56.51;101495.44;5115860;28;20183;-76
2022/06/26 09:52:36;;;;;;;7.05;2.30;;;;;;;21.94;55.81;101494.03;5115471;28;20119;-75
2022/06/26 09:55:06;;;;;;;5.72;1.98;;;;;;;21.87;55.74;101498.97;5115372;28;20040;-76
2022/06/26 09:57:36;;;;;;;5.20;1.60;;;;;;;21.85;56.55;101499.09;5114338;28;20521;-76
2022/06/26 10:00:06;;;;;;;8.30;2.00;;;;;;;21.82;55.68;101517.22;5115132;28;20048;-76
2022/06/26 10:08:22;;;;;;;3.28;1.55;;;;;;;21.82;55.38;101517.22;5115508;28;20060;-76
2022/06/26 10:10:49;;;;;;;5.25;2.00;;;;;;;21.81;55.61;101523.53;5115453;28;20119;-76
2022/06/26 10:13:25;;;;;;;6.05;1.90;;;;;;;21.78;56.57;101516.53;5114728;28;20051;-76
2022/06/26 10:16:18;;;;;;;4.68;2.15;;;;;;;21.75;57.15;101515.88;5113737;28;20033;-76
2022/06/26 10:19:14;;;;;;;5.57;1.83;;;;;;;21.75;58.00;101523.94;5105829;28;20457;-76
2022/06/26 10:21:42;;;;;;;3.30;1.58;;;;;;;21.72;56.91;101528.53;5113201;28;20043;-76
2022/06/26 10:24:09;;;;;;;5.80;1.70;;;;;;;21.69;56.78;101536.81;5114957;27;20770;-76
2022/06/26 10:26:36;;;;;;;2.72;1.45;;;;;;;21.66;57.09;101537.00;5114476;28;20059;-77
2022/06/26 10:29:06;;;;;;;5.60;1.83;;;;;;;21.68;57.66;101547.63;5114656;28;20105;-77
2022/06/26 10:31:41;;;;;;;2.90;1.67;;;;;;;21.69;57.77;101539.50;5114938;28;20040;-77
2022/06/26 10:34:23;;;;;;;7.75;2.13;;;;;;;21.68;56.71;101543.16;5114943;28;20040;-76
2022/06/26 10:37:06;;;;;;;4.38;1.70;;;;;;;21.62;57.59;101540.84;5114774;28;20078;-76
2022/06/26 10:39:41;;;;;;;6.35;2.10;;;;;;;21.61;57.31;101557.06;5115017;28;20037;-76
2022/06/26 10:45:34;;;;;;;9.50;2.63;;;;;;;21.60;57.88;101549.97;5114695;28;20051;-77
2022/06/26 10:48:07;;;;;;;6.43;2.30;;;;;;;21.61;58.41;101554.38;5114702;28;20376;-76
2022/06/26 10:50:40;;;;;;;5.07;2.28;;;;;;;21.62;58.55;101540.84;5114646;28;20040;-76
2022/06/26 10:53:22;;;;;;;10.27;2.40;;;;;;;21.60;59.36;101533.88;5114961;28;20072;-76
2022/06/26 10:55:55;;;;;;;5.13;2.60;;;;;;;21.57;60.13;101537.59;5108857;28;20493;-76
2022/06/26 10:58:31;;;;;;;5.93;2.72;;;;;;;21.59;60.73;101551.81;5103759;28;20040;-76
2022/06/26 11:01:07;;;;;;;6.78;2.83;;;;;;;21.53;60.78;101539.63;5113543;28;20048;-76
2022/06/26 11:03:37;;;;;;;5.18;3.13;;;;;;;21.46;61.00;101551.72;5114939;28;20054;-76
2022/06/26 11:06:09;;;;;;;5.90;3.28;;;;;;;21.39;61.72;101553.06;5114167;28;20048;-76
2022/06/26 11:08:50;;;;;;;6.22;3.30;;;;;;;21.42;62.43;101561.75;5114533;28;20055;-76
2022/06/26 11:11:20;;;;;;;8.77;3.08;;;;;;;21.48;62.94;101567.69;5114727;28;20050;-76
2022/06/26 11:13:59;;;;;;;7.03;3.20;;;;;;;21.55;63.56;101563.66;5113462;28;20032;-77
2022/06/26 11:16:38;;;;;;;;;;;;;;;21.56;63.54;101570.75;5115169;28;20044;-76
2022/06/26 11:19:20;;;;;;;5.30;2.70;;;;;;;21.48;63.45;101573.91;5114436;28;19924;-76
2022/06/26 11:21:48;;;;;;;6.40;2.60;;;;;;;21.32;62.92;101570.50;5113987;28;20046;-76
2022/06/26 11:24:15;;;;;;;6.43;2.30;;;;;;;21.14;61.82;101564.50;5114407;28;20120;-76
2022/06/26 11:26:51;;;;;;;4.68;2.40;;;;;;;20.93;62.72;101557.75;5113670;28;20044;-75
2022/06/26 11:29:19;;;;;;;4.70;2.60;;;;;;;20.77;63.52;101547.13;5113973;28;20072;-75
2022/06/26 11:31:50;;;;;;;6.28;2.80;;;;;;;20.72;64.08;101549.19;5114466;28;20063;-76
2022/06/26 11:34:18;;;;;;;5.97;3.53;;;;;;;20.69;64.71;101559.22;5114137;27;20048;-76
2022/06/26 11:36:58;;;;;;;5.50;3.20;;;;;;;20.63;65.88;101557.78;5095041;28;20071;-76
2022/06/26 11:39:40;;;;;;;9.25;4.15;;;;;;;20.57;65.55;101556.34;5113747;28;20043;-76
2022/06/26 11:42:22;;;;;;;6.07;3.50;;;;;;;20.47;66.25;101550.72;5113022;28;20093;-76
2022/06/26 11:44:52;;;;;;;4.55;3.10;;;;;;;20.33;65.80;101535.50;5113696;28;20040;-77
2022/06/26 11:47:21;;;;;;;7.45;3.67;;;;;;;20.19;66.53;101531.91;5113928;28;20084;-76
2022/06/26 11:49:52;;;;;;;4.38;3.00;;;;;;;20.11;66.96;101540.41;5113448;28;20048;-76